OOSH

Sohar Airport

Sohar, Oman
TAF OOSH 181700Z 1818/1924 VRB02KT 8000 NSC BECMG 1906/1908 05012KT BECMG 1915/1917 VRB02KT
Issued Valid From Valid To
Jul-18 @ 17:00 UTC
(5 hours ago)
Jul-18 @ 18:00 UTC
(4 hours ago)
Jul-20 @ 00:00 UTC
(-1 days ago)
Jul-18 @ 18:00 to Jul-19 @ 06:00
TAF OOSH 181700Z 1818/1924 VRB02KT 8000 NSC
Wind Visibility Clouds
Variable at 2 knots 7,998 meters
  • No significant clouds
Becoming Jul-19 @ 06:00 to Jul-19 @ 15:00
BECMG 1906/1908 05012KT
Wind Visibility Clouds
50° at 12 knots 7,998 meters
  • No significant clouds
Becoming Jul-19 @ 15:00 to Jul-20 @ 00:00
BECMG 1915/1917 VRB02KT
Wind Visibility Clouds
Variable at 2 knots 7,998 meters
  • No significant clouds
TAF OOSH 181700Z 1818/1924 VRB02KT 8000 NSC BECMG 1906/1908 05012KT BECMG 1915/1917 VRB02KT
Issued Jul-18 @ 17:00 UTC
(5 hours ago)
Valid From Jul-18 @ 18:00 UTC
(4 hours ago)
Valid To Jul-20 @ 00:00 UTC
(-1 days ago)
Jul-18 @ 18:00 - Jul-19 @ 06:00
Wind Visibility
Variable at 2 knots 7,998 meters
Clouds
  • No significant clouds
Becoming Jul-19 @ 06:00 - Jul-19 @ 15:00
Wind Visibility
50° at 12 knots 7,998 meters
Clouds
  • No significant clouds
Becoming Jul-19 @ 15:00 - Jul-20 @ 00:00
Wind Visibility
Variable at 2 knots 7,998 meters
Clouds
  • No significant clouds